Decoded Metar for LFRB (BREST in FRANCE) (IATA:BES) | Meteo·Mobile Aviation Weather
aviador You're here:

LFRB Decoded Metar

BREST in FRANCE
Report Time2019-09-21 09:30:00
UTC Time2019-09-21 10:03:37
Flight Rules mvfr MVFR
Wind170° at 11 kt
W.Decomp.*RWY 25: 2.5 kt HW 10.7 kt LCW
Visibility9999 m
Phenomena:N/A
Clouds:Overcast 014 Hf
Expected CloudBase > 1,200 ft AGL from Temp-Dew spread
Ceiling1,400 ft
Temp20°C (ISA +6)
Dew Point17°C (83% RH)
AAT18.4°C
QNH1007 hPa
Density Alt1,463 ft
Elevation338 ft
Report Wrong Elevation
Raw Report
METAR LFRB 210930Z AUTO 17011KT 9999 OVC014 20/17 Q1007 TEMPO 16015G25KT
BKN008=

Extra information for LFRB:More info

Metar Taf Metar & Taf Last 4 Metars F.Rules Stats Wind Profile Meteogram Temp Stats Airport Information Weather charts Add Link Nearby VenuesMetar ALERT Operation Metar Decoded Social comments